Stavros S. Niarchos — MZIU7 — position and weather

sailwx.info

Track history (hours):
 
Tides and Currents Weather Stations Pressure Air Temp Water Temp Dewpoint Dewpoint Depression Visibility Wind Speed Wind Dir Waves Ship Positions

Stavros S. Niarchos

See http://www.classic-sailing.co.uk/ for bookings.

Ship's website: http://www.tallships.org/

Last reported at 2017-Nov-15 07:15 UTC. Time now 2017-Nov-17 19:25 UTC.
Position N 37°32' W 000°21'.

Length 59.4 m; beam 9.9 m; draft 4.5 m.

Type: Sailing vessel. MMSI: 232007330.

Date/timePositionNaut miles runAvg speedWind from/ knotsBaromVisibWave heightAir tempDewpointWater temp
2017-Nov-15 07:15N 37°32' W 000°21'16 7.3
2017-Nov-15 05:07N 37°28' W 000°40'2 7.2
2017-Nov-15 04:49N 37°28' W 000°43'2 7.1
2017-Nov-15 04:30N 37°27' W 000°45'5 7.1
2017-Nov-15 03:49N 37°25' W 000°51'  
2017-Nov-12 05:52N 36°08' W 005°22'0 0.0
2017-Nov-12 04:43N 36°08' W 005°22'0 0.0
2017-Nov-12 04:25N 36°08' W 005°22'0 0.0
2017-Nov-12 03:58N 36°08' W 005°22'0 0.0
2017-Nov-12 03:25N 36°08' W 005°22'0 0.0
2017-Nov-12 02:58N 36°08' W 005°22'0 0.0
2017-Nov-12 02:22N 36°08' W 005°22'0 0.0
2017-Nov-12 01:55N 36°08' W 005°22'0 0.0
2017-Nov-11 22:13N 36°08' W 005°22'0 0.0
2017-Nov-11 19:43N 36°08' W 005°22'0 0.0
2017-Nov-11 17:37N 36°08' W 005°22'0 0.0
2017-Nov-11 17:19N 36°08' W 005°22'0 0.0
2017-Nov-11 16:49N 36°08' W 005°22'0 0.0
2017-Nov-11 06:44N 36°09' W 005°22'0 0.2
2017-Nov-11 05:52N 36°08' W 005°22'0 0.0
2017-Nov-11 05:20N 36°08' W 005°22'0 0.0
2017-Nov-11 04:57N 36°08' W 005°22'0 0.0
2017-Nov-11 04:20N 36°08' W 005°22'0 0.0
2017-Nov-11 03:54N 36°08' W 005°22'0 0.0
2017-Nov-11 03:26N 36°08' W 005°22'0 0.0
2017-Nov-11 00:41N 36°08' W 005°22'0 0.0
2017-Nov-11 00:26N 36°08' W 005°22'0 0.0
2017-Nov-10 22:31N 36°08' W 005°22'0 0.0
2017-Nov-10 22:16N 36°08' W 005°22'0 0.0
2017-Nov-10 22:00N 36°08' W 005°22'0 0.0
2017-Nov-10 21:22N 36°08' W 005°22'0 0.0
2017-Nov-10 20:58N 36°08' W 005°22'0 0.0
2017-Nov-10 20:13N 36°08' W 005°22'8 1.1
2017-Nov-10 12:27N 36°02' W 005°15'2 4.4
2017-Nov-10 12:00N 36°01' W 005°16'2 4.6
2017-Nov-10 11:30N 35°60' W 005°19'2 4.3
2017-Nov-10 11:00N 35°59' W 005°21'254 5.8
2017-Nov-08 15:11N 38°13' W 009°51'2 7.7
2017-Nov-08 14:57N 38°15' W 009°52'4 7.2
2017-Nov-08 14:26N 38°19' W 009°54'3 7.4
2017-Nov-08 14:00N 38°22' W 009°55'4 7.4
2017-Nov-08 13:29N 38°25' W 009°57'4 7.6
2017-Nov-08 13:00N 38°29' W 009°59'4 7.4
2017-Nov-08 12:30N 38°32' W 010°01'4 7.2
2017-Nov-08 12:00N 38°35' W 010°03'4 7.1
2017-Nov-08 11:26N 38°39' W 010°04'3 7.2
2017-Nov-08 11:00N 38°42' W 010°05'4 7.6
2017-Nov-08 10:30N 38°46' W 010°05'4 7.6
2017-Nov-08 10:00N 38°50' W 010°05'4 7.5
2017-Nov-08 09:30N 38°53' W 010°05'4 7.5
2017-Nov-08 09:00N 38°57' W 010°05'4 8.7
2017-Nov-08 08:29N 39°02' W 010°06'4 8.5
2017-Nov-08 08:00N 39°06' W 010°05'4 8.1
2017-Nov-08 07:30N 39°10' W 010°05'  
Track history (hours):
 
Tides and Currents Weather Stations Pressure Air Temp Water Temp Dewpoint Dewpoint Depression Visibility Wind Speed Wind Dir Waves Ship Positions

Stavros S. Niarchos

See http://www.classic-sailing.co.uk/ for bookings.

Ship's website: http://www.tallships.org/

Last reported at 2017-Nov-15 07:15 UTC. Time now 2017-Nov-17 19:25 UTC.
Position N 37°32' W 000°21'.

Length 59.4 m; beam 9.9 m; draft 4.5 m.

Type: Sailing vessel. MMSI: 232007330.

Date/timePositionNaut miles runAvg speedWind from/ knotsBaromVisibWave heightAir tempDewpointWater temp
2017-Nov-15 07:15N 37°32' W 000°21'16 7.3
2017-Nov-15 05:07N 37°28' W 000°40'2 7.2
2017-Nov-15 04:49N 37°28' W 000°43'2 7.1
2017-Nov-15 04:30N 37°27' W 000°45'5 7.1
2017-Nov-15 03:49N 37°25' W 000°51'  
2017-Nov-12 05:52N 36°08' W 005°22'0 0.0
2017-Nov-12 04:43N 36°08' W 005°22'0 0.0
2017-Nov-12 04:25N 36°08' W 005°22'0 0.0
2017-Nov-12 03:58N 36°08' W 005°22'0 0.0
2017-Nov-12 03:25N 36°08' W 005°22'0 0.0
2017-Nov-12 02:58N 36°08' W 005°22'0 0.0
2017-Nov-12 02:22N 36°08' W 005°22'0 0.0
2017-Nov-12 01:55N 36°08' W 005°22'0 0.0
2017-Nov-11 22:13N 36°08' W 005°22'0 0.0
2017-Nov-11 19:43N 36°08' W 005°22'0 0.0
2017-Nov-11 17:37N 36°08' W 005°22'0 0.0
2017-Nov-11 17:19N 36°08' W 005°22'0 0.0
2017-Nov-11 16:49N 36°08' W 005°22'0 0.0
2017-Nov-11 06:44N 36°09' W 005°22'0 0.2
2017-Nov-11 05:52N 36°08' W 005°22'0 0.0
2017-Nov-11 05:20N 36°08' W 005°22'0 0.0
2017-Nov-11 04:57N 36°08' W 005°22'0 0.0
2017-Nov-11 04:20N 36°08' W 005°22'0 0.0
2017-Nov-11 03:54N 36°08' W 005°22'0 0.0
2017-Nov-11 03:26N 36°08' W 005°22'0 0.0
2017-Nov-11 00:41N 36°08' W 005°22'0 0.0
2017-Nov-11 00:26N 36°08' W 005°22'0 0.0
2017-Nov-10 22:31N 36°08' W 005°22'0 0.0
2017-Nov-10 22:16N 36°08' W 005°22'0 0.0
2017-Nov-10 22:00N 36°08' W 005°22'0 0.0
2017-Nov-10 21:22N 36°08' W 005°22'0 0.0
2017-Nov-10 20:58N 36°08' W 005°22'0 0.0
2017-Nov-10 20:13N 36°08' W 005°22'8 1.1
2017-Nov-10 12:27N 36°02' W 005°15'2 4.4
2017-Nov-10 12:00N 36°01' W 005°16'2 4.6
2017-Nov-10 11:30N 35°60' W 005°19'2 4.3
2017-Nov-10 11:00N 35°59' W 005°21'254 5.8
2017-Nov-08 15:11N 38°13' W 009°51'2 7.7
2017-Nov-08 14:57N 38°15' W 009°52'4 7.2
2017-Nov-08 14:26N 38°19' W 009°54'3 7.4
2017-Nov-08 14:00N 38°22' W 009°55'4 7.4
2017-Nov-08 13:29N 38°25' W 009°57'4 7.6
2017-Nov-08 13:00N 38°29' W 009°59'4 7.4
2017-Nov-08 12:30N 38°32' W 010°01'4 7.2
2017-Nov-08 12:00N 38°35' W 010°03'4 7.1
2017-Nov-08 11:26N 38°39' W 010°04'3 7.2
2017-Nov-08 11:00N 38°42' W 010°05'4 7.6
2017-Nov-08 10:30N 38°46' W 010°05'4 7.6
2017-Nov-08 10:00N 38°50' W 010°05'4 7.5
2017-Nov-08 09:30N 38°53' W 010°05'4 7.5
2017-Nov-08 09:00N 38°57' W 010°05'4 8.7
2017-Nov-08 08:29N 39°02' W 010°06'4 8.5
2017-Nov-08 08:00N 39°06' W 010°05'4 8.1
2017-Nov-08 07:30N 39°10' W 010°05'  

Dump ship's entire track history